sensor_id;sensor_type;location;lat;lon;timestamp;temperature;humidity
11204;DHT22;5659;49.408;11.116;2023-06-26T00:00:06;15.70;99.90
11204;DHT22;5659;49.408;11.116;2023-06-26T00:02:33;15.60;99.90
11204;DHT22;5659;49.408;11.116;2023-06-26T00:04:58;15.60;99.90
11204;DHT22;5659;49.408;11.116;2023-06-26T00:07:27;15.70;99.90
11204;DHT22;5659;49.408;11.116;2023-06-26T00:09:53;15.50;99.90
11204;DHT22;5659;49.408;11.116;2023-06-26T00:12:18;15.50;99.90
11204;DHT22;5659;49.408;11.116;2023-06-26T00:14:44;15.40;99.90
11204;DHT22;5659;49.408;11.116;2023-06-26T00:17:10;15.40;99.90
11204;DHT22;5659;49.408;11.116;2023-06-26T00:19:36;15.40;99.90
11204;DHT22;5659;49.408;11.116;2023-06-26T00:22:02;15.50;99.90
11204;DHT22;5659;49.408;11.116;2023-06-26T00:24:27;15.30;99.90
11204;DHT22;5659;49.408;11.116;2023-06-26T00:26:53;15.30;99.90
11204;DHT22;5659;49.408;11.116;2023-06-26T00:29:18;14.80;99.90
11204;DHT22;5659;49.408;11.116;2023-06-26T00:31:44;15.20;99.90
11204;DHT22;5659;49.408;11.116;2023-06-26T00:34:10;14.70;99.90
11204;DHT22;5659;49.408;11.116;2023-06-26T00:36:35;15.20;99.90
11204;DHT22;5659;49.408;11.116;2023-06-26T00:43:54;15.20;99.90
11204;DHT22;5659;49.408;11.116;2023-06-26T04:31:54;14.10;99.90
11204;DHT22;5659;49.408;11.116;2023-06-26T04:34:27;14.40;99.90
11204;DHT22;5659;49.408;11.116;2023-06-26T04:36:53;14.20;99.90
11204;DHT22;5659;49.408;11.116;2023-06-26T05:28:05;14.60;99.90
11204;DHT22;5659;49.408;11.116;2023-06-26T05:30:31;17.60;99.90
11204;DHT22;5659;49.408;11.116;2023-06-26T05:33:00;17.80;99.90
11204;DHT22;5659;49.408;11.116;2023-06-26T05:35:28;17.80;99.90
11204;DHT22;5659;49.408;11.116;2023-06-26T05:37:55;18.20;99.90
11204;DHT22;5659;49.408;11.116;2023-06-26T05:40:21;18.30;99.90
11204;DHT22;5659;49.408;11.116;2023-06-26T05:42:47;18.30;99.90
11204;DHT22;5659;49.408;11.116;2023-06-26T05:45:13;18.30;99.90
11204;DHT22;5659;49.408;11.116;2023-06-26T05:47:38;18.50;99.90
11204;DHT22;5659;49.408;11.116;2023-06-26T05:50:05;18.80;99.90
11204;DHT22;5659;49.408;11.116;2023-06-26T05:52:31;18.90;99.90
11204;DHT22;5659;49.408;11.116;2023-06-26T05:54:57;19.00;99.90
11204;DHT22;5659;49.408;11.116;2023-06-26T05:57:27;19.10;99.90
11204;DHT22;5659;49.408;11.116;2023-06-26T05:59:53;19.30;99.90
11204;DHT22;5659;49.408;11.116;2023-06-26T06:02:19;19.70;99.90
11204;DHT22;5659;49.408;11.116;2023-06-26T06:04:45;19.80;99.90
11204;DHT22;5659;49.408;11.116;2023-06-26T06:07:11;19.90;99.90
11204;DHT22;5659;49.408;11.116;2023-06-26T06:09:36;19.90;99.90
11204;DHT22;5659;49.408;11.116;2023-06-26T06:12:06;20.00;99.90
11204;DHT22;5659;49.408;11.116;2023-06-26T06:14:32;20.20;99.90
11204;DHT22;5659;49.408;11.116;2023-06-26T06:16:58;20.50;99.90
11204;DHT22;5659;49.408;11.116;2023-06-26T06:19:24;20.60;99.90
11204;DHT22;5659;49.408;11.116;2023-06-26T06:21:49;20.50;99.90
11204;DHT22;5659;49.408;11.116;2023-06-26T06:24:15;20.70;99.90
11204;DHT22;5659;49.408;11.116;2023-06-26T06:26:40;21.00;99.90
11204;DHT22;5659;49.408;11.116;2023-06-26T06:29:06;21.00;99.90
11204;DHT22;5659;49.408;11.116;2023-06-26T06:31:32;21.30;99.90
11204;DHT22;5659;49.408;11.116;2023-06-26T06:33:57;21.30;99.90
11204;DHT22;5659;49.408;11.116;2023-06-26T06:36:23;21.50;99.90
11204;DHT22;5659;49.408;11.116;2023-06-26T06:38:48;21.50;99.90
11204;DHT22;5659;49.408;11.116;2023-06-26T06:41:14;21.80;99.90
11204;DHT22;5659;49.408;11.116;2023-06-26T06:43:40;21.80;99.90
11204;DHT22;5659;49.408;11.116;2023-06-26T06:46:06;22.30;99.90
11204;DHT22;5659;49.408;11.116;2023-06-26T06:48:32;22.00;99.90
11204;DHT22;5659;49.408;11.116;2023-06-26T06:50:57;22.00;99.90
11204;DHT22;5659;49.408;11.116;2023-06-26T06:53:23;22.20;99.90
11204;DHT22;5659;49.408;11.116;2023-06-26T06:55:49;22.30;99.90
11204;DHT22;5659;49.408;11.116;2023-06-26T06:58:15;22.40;99.90
11204;DHT22;5659;49.408;11.116;2023-06-26T07:00:48;23.10;99.90
11204;DHT22;5659;49.408;11.116;2023-06-26T07:03:13;22.80;99.90
11204;DHT22;5659;49.408;11.116;2023-06-26T07:05:41;22.80;99.90
11204;DHT22;5659;49.408;11.116;2023-06-26T07:08:07;22.90;99.90
11204;DHT22;5659;49.408;11.116;2023-06-26T07:10:32;23.00;99.90
11204;DHT22;5659;49.408;11.116;2023-06-26T07:12:58;23.70;99.90
11204;DHT22;5659;49.408;11.116;2023-06-26T07:15:23;23.30;99.90
11204;DHT22;5659;49.408;11.116;2023-06-26T07:22:42;23.70;98.50
11204;DHT22;5659;49.408;11.116;2023-06-26T07:25:10;23.90;96.10
11204;DHT22;5659;49.408;11.116;2023-06-26T07:27:36;24.20;96.00
11204;DHT22;5659;49.408;11.116;2023-06-26T07:30:02;24.10;96.00
11204;DHT22;5659;49.408;11.116;2023-06-26T07:32:28;24.20;95.00
11204;DHT22;5659;49.408;11.116;2023-06-26T07:34:54;24.60;95.20
11204;DHT22;5659;49.408;11.116;2023-06-26T07:37:19;24.70;93.50
11204;DHT22;5659;49.408;11.116;2023-06-26T07:39:45;24.90;94.00
11204;DHT22;5659;49.408;11.116;2023-06-26T07:42:11;24.80;94.60
11204;DHT22;5659;49.408;11.116;2023-06-26T07:44:36;24.80;93.00
11204;DHT22;5659;49.408;11.116;2023-06-26T07:47:02;24.80;92.70
11204;DHT22;5659;49.408;11.116;2023-06-26T07:49:27;25.00;92.40
11204;DHT22;5659;49.408;11.116;2023-06-26T07:51:53;25.10;92.80
11204;DHT22;5659;49.408;11.116;2023-06-26T07:54:18;25.30;93.10
11204;DHT22;5659;49.408;11.116;2023-06-26T07:59:20;25.50;92.70
11204;DHT22;5659;49.408;11.116;2023-06-26T08:01:47;25.50;93.30
11204;DHT22;5659;49.408;11.116;2023-06-26T08:04:13;25.70;92.40
11204;DHT22;5659;49.408;11.116;2023-06-26T08:06:38;25.80;93.70
11204;DHT22;5659;49.408;11.116;2023-06-26T08:09:08;25.90;92.80
11204;DHT22;5659;49.408;11.116;2023-06-26T08:11:34;26.00;92.20
11204;DHT22;5659;49.408;11.116;2023-06-26T08:14:00;26.10;92.70
11204;DHT22;5659;49.408;11.116;2023-06-26T08:16:25;26.30;91.10
11204;DHT22;5659;49.408;11.116;2023-06-26T08:18:51;26.30;90.90
11204;DHT22;5659;49.408;11.116;2023-06-26T08:21:16;26.30;93.40
11204;DHT22;5659;49.408;11.116;2023-06-26T08:23:42;26.50;92.10
11204;DHT22;5659;49.408;11.116;2023-06-26T08:26:08;26.70;91.20
11204;DHT22;5659;49.408;11.116;2023-06-26T08:28:33;26.90;90.50
11204;DHT22;5659;49.408;11.116;2023-06-26T08:30:59;26.80;89.50
11204;DHT22;5659;49.408;11.116;2023-06-26T08:33:25;27.00;90.50
11204;DHT22;5659;49.408;11.116;2023-06-26T08:35:51;27.30;87.60
11204;DHT22;5659;49.408;11.116;2023-06-26T08:38:16;27.40;86.50
11204;DHT22;5659;49.408;11.116;2023-06-26T08:40:42;27.30;88.90
11204;DHT22;5659;49.408;11.116;2023-06-26T08:43:08;27.60;89.70
11204;DHT22;5659;49.408;11.116;2023-06-26T08:45:33;27.50;87.40
11204;DHT22;5659;49.408;11.116;2023-06-26T08:48:00;27.80;98.30
11204;DHT22;5659;49.408;11.116;2023-06-26T08:50:30;27.80;96.30
11204;DHT22;5659;49.408;11.116;2023-06-26T08:55:48;28.10;94.10
11204;DHT22;5659;49.408;11.116;2023-06-26T08:58:15;28.30;93.90
